Time;durP1;ratioP1;P1;durP2;ratioP2;P2;SDS_P1;SDS_P2;PMS_P1;PMS_P2;Temp;Humidity;BMP_temperature;BMP_pressure;BME280_temperature;BME280_humidity;BME280_pressure;Samples;Min_cycle;Max_cycle;Signal;HPM_P1;HPM_P2
2023/08/03 00:00:59;;;;;;;;;;;;;;;15.21;100.00;98904.34;5035553;28;19925;-71
2023/08/03 00:03:24;;;;;;;;;;;;;;;15.18;100.00;98899.34;5030628;28;19983;-71
2023/08/03 00:05:49;;;;;;;;;;;;;;;15.24;100.00;98912.06;5033162;28;19936;-70
2023/08/03 00:08:15;;;;;;;;;;;;;;;15.21;100.00;98907.91;5031376;28;20015;-71
2023/08/03 00:10:40;;;;;;;;;;;;;;;15.20;100.00;98908.09;5028092;28;20302;-72
2023/08/03 00:13:05;;;;;;;;;;;;;;;15.19;100.00;98909.13;5031013;28;20372;-72
2023/08/03 00:15:30;;;;;;;;;;;;;;;15.23;100.00;98907.69;5035087;28;20312;-72
2023/08/03 00:17:55;;;;;;;;;;;;;;;15.24;100.00;98915.59;5031773;28;20216;-72
2023/08/03 00:20:21;;;;;;;;;;;;;;;15.23;100.00;98913.09;5031697;28;19925;-71
2023/08/03 00:22:46;;;;;;;;;;;;;;;15.28;100.00;98918.75;5032970;28;19968;-71
2023/08/03 00:25:11;;;;;;;;;;;;;;;15.32;100.00;98914.63;5031151;28;19965;-72
2023/08/03 00:27:36;;;;;;;;;;;;;;;15.38;100.00;98916.53;5029612;28;19921;-72
2023/08/03 00:30:02;;;;;;;;;;;;;;;15.34;100.00;98911.72;5032182;28;20038;-72
2023/08/03 00:32:27;;;;;;;;;;;;;;;15.38;100.00;98921.09;5034856;28;20184;-74
2023/08/03 00:34:53;;;;;;;;;;;;;;;15.41;100.00;98934.25;5031813;28;22015;-75
2023/08/03 00:37:18;;;;;;;;;;;;;;;15.28;100.00;98905.25;5029347;28;19968;-74
2023/08/03 00:39:43;;;;;;;;;;;;;;;15.56;100.00;98928.72;5026869;28;20347;-75
2023/08/03 00:42:09;;;;;;;;;;;;;;;15.46;100.00;98939.91;5032496;28;20419;-75
2023/08/03 00:44:34;;;;;;;;;;;;;;;15.49;100.00;98947.63;5031087;28;20586;-74
2023/08/03 00:46:59;;;;;;;;;;;;;;;15.55;100.00;98952.22;5024758;28;19947;-74
2023/08/03 00:49:30;;;;;;;;;;;;;;;15.57;100.00;98962.84;5032022;28;20413;-74
2023/08/03 00:51:55;;;;;;;;;;;;;;;15.61;100.00;98972.25;5014996;28;19921;-72
2023/08/03 00:54:21;;;;;;;;;;;;;;;15.60;100.00;98979.50;5022699;28;19917;-72
2023/08/03 00:56:46;;;;;;;;;;;;;;;15.64;100.00;98979.09;5030433;28;19978;-71
2023/08/03 00:59:11;;;;;;;;;;;;;;;15.64;100.00;98979.09;5033163;28;19956;-72
2023/08/03 01:01:37;;;;;;;;;;;;;;;15.66;100.00;98994.09;5030294;28;19959;-71
2023/08/03 01:04:02;;;;;;;;;;;;;;;15.71;100.00;98986.22;5029311;28;19921;-73
2023/08/03 01:06:28;;;;;;;;;;;;;;;15.66;100.00;98980.56;5032256;28;19974;-71
2023/08/03 01:08:54;;;;;;;;;;;;;;;15.74;100.00;98988.53;5013251;28;20043;-71
2023/08/03 01:11:20;;;;;;;;;;;;;;;15.75;100.00;98992.91;5028589;28;20543;-71
2023/08/03 01:13:45;;;;;;;;;;;;;;;15.81;100.00;98998.56;5033104;28;19935;-71
2023/08/03 01:16:10;;;;;;;;;;;;;;;15.77;100.00;98995.41;5033513;28;19927;-71
2023/08/03 01:18:36;;;;;;;;;;;;;;;15.84;100.00;99006.28;5032151;28;20077;-72
2023/08/03 01:21:01;;;;;;;;;;;;;;;15.67;100.00;98984.13;5029934;28;19921;-71
2023/08/03 01:23:27;;;;;;;;;;;;;;;15.85;100.00;99007.97;5030073;28;20375;-75
2023/08/03 01:25:52;;;;;;;;;;;;;;;15.87;100.00;99014.06;5026384;28;19924;-72
2023/08/03 01:28:17;;;;;;;;;;;;;;;15.87;100.00;99031.09;5026569;28;19925;-74
2023/08/03 01:30:42;;;;;;;;;;;;;;;15.87;100.00;99031.09;5025833;28;19949;-73
2023/08/03 01:33:07;;;;;;;;;;;;;;;15.92;100.00;99032.38;5031573;28;20106;-78
2023/08/03 01:35:33;;;;;;;;;;;;;;;15.88;100.00;99040.91;5008433;28;19967;-73
2023/08/03 01:37:58;;;;;;;;;;;;;;;15.91;100.00;99045.06;5028820;28;20016;-72
2023/08/03 01:40:23;;;;;;;;;;;;;;;15.92;100.00;99049.44;5031946;28;20499;-73
2023/08/03 01:42:48;;;;;;;;;;;;;;;16.00;100.00;99054.72;5029723;28;19920;-74
2023/08/03 01:45:14;;;;;;;;;;;;;;;15.98;100.00;99051.38;5029291;28;19925;-73
2023/08/03 01:47:39;;;;;;;;;;;;;;;15.87;100.00;99055.47;5030302;28;19920;-76
2023/08/03 01:50:04;;;;;;;;;;;;;;;15.97;100.00;99062.41;5013657;28;19975;-74
2023/08/03 01:52:29;;;;;;;;;;;;;;;15.93;100.00;99051.13;5030133;28;20027;-75
2023/08/03 01:54:55;;;;;;;;;;;;;;;15.81;100.00;99044.56;5019237;28;19932;-76
2023/08/03 01:57:20;;;;;;;;;;;;;;;15.90;100.00;99062.34;5031315;28;19923;-77
2023/08/03 01:59:45;;;;;;;;;;;;;;;15.87;100.00;99060.06;5029673;28;19950;-74
2023/08/03 02:02:11;;;;;;;;;;;;;;;15.88;100.00;99065.25;5030282;28;20008;-75
2023/08/03 02:04:36;;;;;;;;;;;;;;;15.95;100.00;99080.72;5030578;28;19917;-74
2023/08/03 02:07:07;;;;;;;;;;;;;;;15.96;100.00;99085.09;5034238;28;20597;-75
2023/08/03 02:09:32;;;;;;;;;;;;;;;15.97;100.00;99075.94;5033283;28;20200;-75
2023/08/03 02:11:57;;;;;;;;;;;;;;;15.94;100.00;99081.75;5030449;28;20445;-78
2023/08/03 02:14:23;;;;;;;;;;;;;;;15.97;100.00;99081.34;5032547;28;20356;-72
2023/08/03 02:16:48;;;;;;;;;;;;;;;16.00;100.00;99087.19;5037404;28;19952;-74
2023/08/03 02:19:13;;;;;;;;;;;;;;;16.02;100.00;99090.53;5030942;28;20207;-73
2023/08/03 02:21:38;;;;;;;;;;;;;;;16.02;100.00;99085.13;5032158;28;20006;-74
2023/08/03 02:24:04;;;;;;;;;;;;;;;15.96;100.00;99093.22;5028272;28;20066;-72
2023/08/03 02:26:29;;;;;;;;;;;;;;;15.92;100.00;99087.34;5026888;28;20271;-74
2023/08/03 02:28:54;;;;;;;;;;;;;;;15.92;100.00;99081.09;5036036;28;19924;-72
2023/08/03 02:31:19;;;;;;;;;;;;;;;15.96;100.00;99082.38;5035102;28;19920;-75
2023/08/03 02:33:44;;;;;;;;;;;;;;;15.85;100.00;99073.72;5016046;28;19920;-75
2023/08/03 02:36:10;;;;;;;;;;;;;;;15.84;100.00;99082.88;5015549;28;19929;-73
2023/08/03 02:38:35;;;;;;;;;;;;;;;15.80;100.00;99075.38;5030994;28;20047;-72
2023/08/03 02:41:00;;;;;;;;;;;;;;;15.82;100.00;99084.94;5034337;28;19975;-75
2023/08/03 02:43:28;;;;;;;;;;;;;;;15.83;100.00;99088.50;5030603;28;19964;-72
2023/08/03 02:45:53;;;;;;;;;;;;;;;15.87;100.00;99069.00;5017470;28;19936;-76
2023/08/03 02:48:19;;;;;;;;;;;;;;;15.80;100.00;99078.91;5033080;28;19921;-73
2023/08/03 02:50:44;;;;;;;;;;;;;;;15.88;100.00;99077.97;5032171;28;19927;-74
2023/08/03 02:53:09;;;;;;;;;;;;;;;15.78;100.00;99080.97;5030280;28;20399;-74
2023/08/03 02:55:35;;;;;;;;;;;;;;;15.83;100.00;99077.69;5014635;28;20398;-73
2023/08/03 02:58:00;;;;;;;;;;;;;;;15.81;100.00;99082.44;5031091;28;20032;-73
2023/08/03 03:00:25;;;;;;;;;;;;;;;15.86;100.00;99088.16;5034603;28;19974;-72
2023/08/03 03:02:50;;;;;;;;;;;;;;;15.73;100.00;99088.84;5032337;28;20427;-75
2023/08/03 03:05:15;;;;;;;;;;;;;;;15.79;100.00;99085.34;5035177;28;19928;-74
2023/08/03 03:07:41;;;;;;;;;;;;;;;15.65;100.00;99080.88;5033677;28;20353;-72
2023/08/03 03:10:06;;;;;;;;;;;;;;;15.66;100.00;99074.44;5010989;28;20351;-71
2023/08/03 03:12:31;;;;;;;;;;;;;;;15.60;100.00;99085.00;5032300;28;20282;-72
2023/08/03 03:14:56;;;;;;;;;;;;;;;15.54;100.00;99050.59;5011532;28;20450;-72
2023/08/03 03:17:21;;;;;;;;;;;;;;;15.45;100.00;99039.09;5029393;28;20414;-71
2023/08/03 03:19:47;;;;;;;;;;;;;;;15.48;100.00;99031.63;5029171;28;20283;-71
2023/08/03 03:22:12;;;;;;;;;;;;;;;15.44;100.00;99047.41;5033937;28;20040;-71
2023/08/03 03:24:37;;;;;;;;;;;;;;;15.35;100.00;99051.28;5031232;28;19921;-70
2023/08/03 03:27:02;;;;;;;;;;;;;;;15.35;100.00;99045.88;5031923;28;20306;-72
2023/08/03 03:29:28;;;;;;;;;;;;;;;15.35;100.00;99054.84;5031150;28;20275;-70
2023/08/03 03:31:53;;;;;;;;;;;;;;;15.41;100.00;99074.84;5033158;28;19962;-70
2023/08/03 03:34:18;;;;;;;;;;;;;;;15.42;100.00;99063.00;5031293;28;20006;-69
2023/08/03 03:36:43;;;;;;;;;;;;;;;15.41;100.00;99082.97;5030666;28;20358;-69
2023/08/03 03:39:08;;;;;;;;;;;;;;;15.36;100.00;99086.22;5028758;28;20421;-70
2023/08/03 03:41:34;;;;;;;;;;;;;;;15.37;100.00;99101.41;5029721;28;20020;-69
2023/08/03 03:43:59;;;;;;;;;;;;;;;15.37;100.00;99112.25;5048803;28;19933;-72
2023/08/03 03:46:24;;;;;;;;;;;;;;;15.38;100.00;99102.28;5033834;28;19976;-69
2023/08/03 03:48:49;;;;;;;;;;;;;;;15.39;100.00;99112.06;5032636;28;20036;-69
2023/08/03 03:51:17;;;;;;;;;;;;;;;15.40;100.00;99108.31;5031098;28;20174;-69
2023/08/03 03:53:42;;;;;;;;;;;;;;;15.38;100.00;99105.81;5027360;28;19920;-71
2023/08/03 03:56:07;;;;;;;;;;;;;;;15.39;100.00;99120.19;5014561;28;19923;-70
2023/08/03 03:58:33;;;;;;;;;;;;;;;15.42;100.00;99119.78;5031572;28;20508;-68
2023/08/03 04:00:58;;;;;;;;;;;;;;;15.42;100.00;99126.03;5027043;28;19921;-68
2023/08/03 04:03:26;;;;;;;;;;;;;;;15.41;100.00;99127.06;5011815;28;20644;-71
2023/08/03 04:05:51;;;;;;;;;;;;;;;15.41;100.00;99126.22;5033972;28;19932;-71
2023/08/03 04:08:17;;;;;;;;;;;;;;;15.43;100.00;99137.69;5030992;28;19970;-71
2023/08/03 04:10:42;;;;;;;;;;;;;;;15.36;100.00;99139.47;5024185;28;19927;-74
2023/08/03 04:13:07;;;;;;;;;;;;;;;15.43;100.00;99135.81;5031300;28;19998;-72
2023/08/03 04:15:32;;;;;;;;;;;;;;;15.43;100.00;99145.81;5029804;28;20084;-72
2023/08/03 04:17:57;;;;;;;;;;;;;;;15.43;100.00;99159.31;5033524;28;19924;-70
2023/08/03 04:20:23;;;;;;;;;;;;;;;15.41;100.00;99162.22;5028860;28;19917;-70
2023/08/03 04:22:48;;;;;;;;;;;;;;;15.45;100.00;99170.78;5029301;28;20002;-70
2023/08/03 04:25:13;;;;;;;;;;;;;;;15.47;100.00;99163.31;5028801;28;19974;-69
2023/08/03 04:27:38;;;;;;;;;;;;;;;15.45;100.00;99168.09;5032652;28;19967;-68
2023/08/03 04:30:04;;;;;;;;;;;;;;;15.51;100.00;99174.59;5030727;28;19920;-69
2023/08/03 04:32:30;;;;;;;;;;;;;;;15.56;100.00;99182.97;5031586;28;20489;-71
2023/08/03 04:34:55;;;;;;;;;;;;;;;15.54;100.00;99185.84;5033092;28;19920;-71
2023/08/03 04:37:20;;;;;;;;;;;;;;;15.47;100.00;99184.09;5031641;28;19917;-71
2023/08/03 04:39:45;;;;;;;;;;;;;;;15.59;100.00;99179.88;5024915;28;19920;-71
2023/08/03 04:42:10;;;;;;;;;;;;;;;15.55;100.00;99192.09;5028589;28;20470;-71
2023/08/03 04:44:36;;;;;;;;;;;;;;;15.55;100.00;99192.94;5029894;28;20363;-71
2023/08/03 04:47:01;;;;;;;;;;;;;;;15.57;100.00;99192.75;5013013;28;20489;-71
2023/08/03 04:49:26;;;;;;;;;;;;;;;15.57;100.00;99193.56;5030158;28;19994;-74
2023/08/03 04:51:52;;;;;;;;;;;;;;;15.67;100.00;99197.84;5011024;28;19967;-72
2023/08/03 04:54:17;;;;;;;;;;;;;;;15.71;100.00;99207.25;5030250;28;20045;-71
2023/08/03 04:56:42;;;;;;;;;;;;;;;15.69;100.00;99202.00;5032124;28;19920;-72
2023/08/03 04:59:08;;;;;;;;;;;;;;;15.65;100.00;99205.31;5031611;28;19932;-71
2023/08/03 05:01:33;;;;;;;;;;;;;;;15.68;100.00;99210.34;5028640;28;19920;-71
2023/08/03 05:04:00;;;;;;;;;;;;;;;15.69;100.00;99217.44;5028392;28;19923;-71
2023/08/03 05:06:25;;;;;;;;;;;;;;;15.68;100.00;99224.69;5024430;28;19925;-73
2023/08/03 05:08:51;;;;;;;;;;;;;;;15.65;100.00;99222.38;5022328;28;19963;-72
2023/08/03 05:11:16;;;;;;;;;;;;;;;15.65;100.00;99230.47;5022935;28;20004;-71
2023/08/03 05:13:41;;;;;;;;;;;;;;;15.68;100.00;99229.28;5022391;28;21151;-71
2023/08/03 05:16:06;;;;;;;;;;;;;;;15.66;100.00;99239.44;5023126;28;19921;-71
2023/08/03 05:18:31;;;;;;;;;;;;;;;15.70;100.00;99240.75;5009147;28;19920;-73
2023/08/03 05:20:57;;;;;;;;;;;;;;;15.71;100.00;99239.72;5022973;28;19920;-72
2023/08/03 05:23:22;;;;;;;;;;;;;;;15.69;100.00;99250.72;5006435;28;20310;-72
2023/08/03 05:25:53;;;;;;;;;;;;;;;15.74;100.00;99258.28;5021772;28;19935;-74
2023/08/03 05:28:18;;;;;;;;;;;;;;;15.80;100.00;99257.47;5020641;28;19982;-75
2023/08/03 05:30:43;;;;;;;;;;;;;;;15.64;100.00;99242.34;5019262;28;20325;-71
2023/08/03 05:33:09;;;;;;;;;;;;;;;15.80;100.00;99262.91;5026748;28;19932;-73
2023/08/03 05:35:34;;;;;;;;;;;;;;;15.83;100.00;99270.63;5008408;28;19916;-74
2023/08/03 05:37:59;;;;;;;;;;;;;;;15.82;100.00;99285.19;5003555;28;20000;-71
2023/08/03 05:40:24;;;;;;;;;;;;;;;15.86;100.00;99291.94;5006746;28;21673;-71
2023/08/03 05:42:49;;;;;;;;;;;;;;;15.87;100.00;99293.59;5021513;28;20454;-72
2023/08/03 05:45:33;;;;;;;;;;;;;;;15.88;100.00;99289.06;5003575;28;19933;-75
2023/08/03 05:47:59;;;;;;;;;;;;;;;15.89;100.00;99296.97;5021741;28;20064;-72
2023/08/03 05:50:24;;;;;;;;;;;;;;;15.92;100.00;99301.13;5002946;28;20020;-73
2023/08/03 05:52:50;;;;;;;;;;;;;;;15.91;100.00;99310.28;5024993;28;20559;-76
2023/08/03 05:55:15;;;;;;;;;;;;;;;15.97;100.00;99317.66;5004503;28;20245;-72
2023/08/03 05:57:40;;;;;;;;;;;;;;;15.96;100.00;99299.72;5023816;28;20005;-71
2023/08/03 06:00:11;;;;;;;;;;;;;;;16.08;100.00;99318.19;5017467;28;19928;-71
2023/08/03 06:02:36;;;;;;;;;;;;;;;16.12;100.00;99335.72;5007275;28;19917;-71
2023/08/03 06:05:01;;;;;;;;;;;;;;;16.00;100.00;99329.97;5022317;28;19928;-71
2023/08/03 06:07:26;;;;;;;;;;;;;;;15.97;100.00;99331.19;5021663;28;19921;-72
2023/08/03 06:09:51;;;;;;;;;;;;;;;16.10;100.00;99343.19;5005102;28;20036;-70
2023/08/03 06:12:17;;;;;;;;;;;;;;;16.10;100.00;99346.72;5023015;28;19921;-75
2023/08/03 06:14:42;;;;;;;;;;;;;;;16.07;100.00;99344.41;5005376;28;19924;-72
2023/08/03 06:17:08;;;;;;;;;;;;;;;16.04;100.00;99342.94;5024266;28;21053;-71
2023/08/03 06:19:35;;;;;;;;;;;;;;;16.03;100.00;99357.50;5025131;28;19925;-71
2023/08/03 06:22:01;;;;;;;;;;;;;;;16.13;100.00;99349.06;5020296;28;19932;-72
2023/08/03 06:24:26;;;;;;;;;;;;;;;16.29;100.00;99353.38;5021586;28;19921;-72
2023/08/03 06:26:52;;;;;;;;;;;;;;;16.24;100.00;99355.00;5020730;28;21365;-73
2023/08/03 06:29:17;;;;;;;;;;;;;;;16.32;100.00;99363.84;5021868;28;19999;-72
2023/08/03 06:31:42;;;;;;;;;;;;;;;16.41;100.00;99355.59;5024275;28;20381;-74
2023/08/03 06:34:13;;;;;;;;;;;;;;;16.34;100.00;99369.91;5021754;28;20434;-74
2023/08/03 06:36:39;;;;;;;;;;;;;;;16.30;100.00;99371.31;5005280;28;19925;-72
2023/08/03 06:39:04;;;;;;;;;;;;;;;16.31;100.00;99369.41;5020064;28;19952;-72
2023/08/03 06:41:29;;;;;;;;;;;;;;;16.10;100.00;99378.38;5022403;28;20267;-72
2023/08/03 06:43:54;;;;;;;;;;;;;;;16.07;100.00;99379.59;5007354;28;20294;-72
2023/08/03 06:46:20;;;;;;;;;;;;;;;16.10;100.00;99392.75;5019771;28;20295;-72
2023/08/03 06:48:46;;;;;;;;;;;;;;;16.10;100.00;99406.28;5002383;28;19925;-72
2023/08/03 06:51:11;;;;;;;;;;;;;;;15.99;100.00;99404.91;5022512;28;20023;-71
2023/08/03 06:53:36;;;;;;;;;;;;;;;16.09;100.00;99398.38;5029650;28;19921;-72
2023/08/03 06:56:03;;;;;;;;;;;;;;;16.00;100.00;99403.06;5025747;28;19920;-71
2023/08/03 06:58:28;;;;;;;;;;;;;;;15.96;100.00;99402.59;5022542;28;19962;-70
2023/08/03 07:00:53;;;;;;;;;;;;;;;16.06;100.00;99404.97;5016371;28;19924;-75
2023/08/03 07:03:18;;;;;;;;;;;;;;;15.99;100.00;99407.63;5036554;28;20466;-70
2023/08/03 07:05:44;;;;;;;;;;;;;;;16.03;100.00;99414.34;5021604;28;20542;-72
2023/08/03 07:08:10;;;;;;;;;;;;;;;15.99;100.00;99420.34;5004106;28;19928;-70
2023/08/03 07:10:35;;;;;;;;;;;;;;;16.05;100.00;99422.25;5024516;28;19921;-71
2023/08/03 07:13:00;;;;;;;;;;;;;;;16.03;100.00;99418.91;5024411;28;19968;-72
2023/08/03 07:15:25;;;;;;;;;;;;;;;16.14;100.00;99420.31;5024960;28;19925;-72
2023/08/03 07:17:51;;;;;;;;;;;;;;;16.20;100.00;99419.50;5034201;28;19921;-71
2023/08/03 07:20:18;;;;;;;;;;;;;;;16.08;100.00;99426.47;5033131;28;19928;-73
2023/08/03 07:22:45;;;;;;;;;;;;;;;16.24;100.00;99436.25;5029055;28;19925;-69
2023/08/03 07:25:10;;;;;;;;;;;;;;;16.22;100.00;99436.41;5002015;28;19925;-70
2023/08/03 07:27:36;;;;;;;;;;;;;;;16.26;100.00;99439.59;5020375;28;19970;-70
2023/08/03 07:30:01;;;;;;;;;;;;;;;16.23;100.00;99448.91;5025448;28;19925;-71
2023/08/03 07:32:26;;;;;;;;;;;;;;;16.25;100.00;99448.75;5027011;28;20126;-73
2023/08/03 07:34:52;;;;;;;;;;;;;;;16.19;100.00;99439.50;5026539;28;19924;-74
2023/08/03 07:37:17;;;;;;;;;;;;;;;16.14;100.00;99447.38;5011878;28;19927;-72
2023/08/03 07:39:42;;;;;;;;;;;;;;;16.18;100.00;99465.75;5023916;28;19955;-73
2023/08/03 07:42:07;;;;;;;;;;;;;;;16.07;100.00;99459.97;5029202;28;19951;-72
2023/08/03 07:44:33;;;;;;;;;;;;;;;16.17;100.00;99464.06;5027700;28;19975;-72
2023/08/03 07:46:58;;;;;;;;;;;;;;;16.07;100.00;99471.63;5032540;28;19929;-73
2023/08/03 07:49:23;;;;;;;;;;;;;;;16.19;100.00;99472.00;5018675;28;19921;-71
2023/08/03 07:51:48;;;;;;;;;;;;;;;16.30;100.00;99473.34;5016822;28;20405;-72
2023/08/03 07:54:14;;;;;;;;;;;;;;;16.12;100.00;99479.22;5017391;28;20140;-71
2023/08/03 07:56:39;;;;;;;;;;;;;;;16.15;100.00;99489.66;5028150;28;20430;-74
2023/08/03 07:59:05;;;;;;;;;;;;;;;16.12;100.00;99487.34;5022810;28;20739;-70
2023/08/03 08:01:30;;;;;;;;;;;;;;;16.15;100.00;99484.25;4998772;28;19943;-72
2023/08/03 08:03:55;;;;;;;;;;;;;;;16.21;100.00;99479.94;5025618;28;20424;-72
2023/08/03 08:06:20;;;;;;;;;;;;;;;16.09;100.00;99485.81;5024272;28;20411;-73
2023/08/03 08:08:46;;;;;;;;;;;;;;;16.10;100.00;99497.50;5022128;28;20718;-72
2023/08/03 08:11:12;;;;;;;;;;;;;;;16.11;100.00;99510.03;5005486;28;19929;-70
2023/08/03 08:13:37;;;;;;;;;;;;;;;16.08;100.00;99510.41;5023923;28;19939;-72
2023/08/03 08:16:03;;;;;;;;;;;;;;;16.14;100.00;99501.53;5029645;28;19917;-73
2023/08/03 08:18:29;;;;;;;;;;;;;;;16.26;100.00;99516.25;5022824;28;19960;-73
2023/08/03 08:20:55;;;;;;;;;;;;;;;16.31;100.00;99526.50;5023593;28;20103;-73
2023/08/03 08:23:20;;;;;;;;;;;;;;;16.43;100.00;99533.13;5026541;28;20382;-74
2023/08/03 08:25:45;;;;;;;;;;;;;;;16.34;100.00;99534.25;5022610;28;20737;-72
2023/08/03 08:28:10;;;;;;;;;;;;;;;16.30;100.00;99532.94;5029765;28;20295;-76
2023/08/03 08:30:36;;;;;;;;;;;;;;;16.45;100.00;99535.63;5022089;28;20434;-74
2023/08/03 08:33:01;;;;;;;;;;;;;;;16.39;100.00;99549.94;5012445;28;20563;-71
2023/08/03 08:35:26;;;;;;;;;;;;;;;16.34;100.00;99548.66;5009993;28;20896;-70
2023/08/03 08:37:51;;;;;;;;;;;;;;;16.44;100.00;99545.63;5021515;28;19920;-75
2023/08/03 08:40:16;;;;;;;;;;;;;;;16.37;100.00;99562.84;5019625;28;20188;-72
2023/08/03 08:42:42;;;;;;;;;;;;;;;16.41;100.00;99564.16;5028385;28;19986;-71
2023/08/03 08:45:07;;;;;;;;;;;;;;;16.46;100.00;99573.38;5001320;28;19964;-72
2023/08/03 08:47:32;;;;;;;;;;;;;;;16.49;100.00;99583.00;5017593;28;19925;-72
2023/08/03 08:49:58;;;;;;;;;;;;;;;16.55;100.00;99576.00;5001449;28;19984;-73
2023/08/03 08:52:23;;;;;;;;;;;;;;;16.55;100.00;99592.25;5035073;28;19916;-75
2023/08/03 08:54:48;;;;;;;;;;;;;;;16.82;100.00;99592.56;5003222;28;20039;-75
2023/08/03 08:57:13;;;;;;;;;;;;;;;16.62;100.00;99593.16;5002126;28;20077;-74
2023/08/03 08:59:42;;;;;;;;;;;;;;;16.67;100.00;99600.72;5016793;28;19998;-74
2023/08/03 09:02:08;;;;;;;;;;;;;;;16.69;100.00;99610.34;5017273;28;19955;-74
2023/08/03 09:04:33;;;;;;;;;;;;;;;16.76;100.00;99611.25;5004512;28;20546;-75
2023/08/03 09:06:59;;;;;;;;;;;;;;;16.80;100.00;99619.84;5019192;28;19929;-74
2023/08/03 09:09:28;;;;;;;;;;;;;;;16.71;100.00;99623.69;5019576;28;19917;-72
2023/08/03 09:11:55;;;;;;;;;;;;;;;16.71;100.00;99626.38;5026121;28;19920;-72
2023/08/03 09:14:21;;;;;;;;;;;;;;;16.73;100.00;99644.16;5026241;28;19964;-75
2023/08/03 09:16:46;;;;;;;;;;;;;;;16.56;100.00;99648.94;5035572;28;20500;-74
2023/08/03 09:19:11;;;;;;;;;;;;;;;16.57;100.00;99663.31;5012996;28;19927;-75
2023/08/03 09:21:37;;;;;;;;;;;;;;;16.49;100.00;99661.56;5028686;28;19920;-72
2023/08/03 09:24:21;;;;;;;;;;;;;;;16.51;100.00;99656.78;5031549;28;20295;-74
2023/08/03 09:26:47;;;;;;;;;;;;;;;16.63;100.00;99671.56;5008690;28;19925;-71
2023/08/03 09:29:13;;;;;;;;;;;;;;;16.61;100.00;99670.03;5027525;28;19986;-72
2023/08/03 09:31:38;;;;;;;;;;;;;;;16.65;100.00;99684.91;5033936;28;19917;-75
2023/08/03 09:34:04;;;;;;;;;;;;;;;16.70;100.00;99693.31;5027900;28;19921;-77
2023/08/03 09:36:29;;;;;;;;;;;;;;;16.75;100.00;99695.47;5028270;28;19920;-75
2023/08/03 09:39:13;;;;;;;;;;;;;;;16.91;100.00;99702.53;5029618;28;20450;-73
2023/08/03 09:41:38;;;;;;;;;;;;;;;16.98;100.00;99684.53;5014864;28;20350;-74
2023/08/03 09:44:05;;;;;;;;;;;;;;;17.37;100.00;99710.41;5031885;28;19920;-73
2023/08/03 09:46:30;;;;;;;;;;;;;;;17.62;100.00;99711.94;5031495;28;20223;-75
2023/08/03 09:48:56;;;;;;;;;;;;;;;17.81;100.00;99716.72;5032380;28;19951;-74
2023/08/03 09:51:21;;;;;;;;;;;;;;;18.19;100.00;99728.34;5030098;28;19956;-75
2023/08/03 09:53:46;;;;;;;;;;;;;;;18.54;100.00;99726.50;5013833;28;20332;-72
2023/08/03 09:56:12;;;;;;;;;;;;;;;18.57;100.00;99742.41;5030865;28;19979;-73
2023/08/03 09:58:38;;;;;;;;;;;;;;;18.66;100.00;99728.69;5011716;28;20699;-74
2023/08/03 10:01:03;;;;;;;;;;;;;;;18.95;100.00;99743.91;5023570;28;19917;-72
2023/08/03 10:03:29;;;;;;;;;;;;;;;19.30;100.00;99748.47;5012604;28;19925;-73
2023/08/03 10:05:56;;;;;;;;;;;;;;;19.09;100.00;99739.38;5026562;28;19929;-71
2023/08/03 10:08:31;;;;;;;;;;;;;;;19.46;100.00;99756.28;5010946;28;19940;-72
2023/08/03 10:11:01;;;;;;;;;;;;;;;19.66;100.00;99746.47;5026416;28;20022;-73
2023/08/03 10:13:27;;;;;;;;;;;;;;;19.66;100.00;99750.03;5021860;28;20189;-73
2023/08/03 10:15:53;;;;;;;;;;;;;;;19.71;100.00;99763.88;5022820;28;19974;-74
2023/08/03 10:18:18;;;;;;;;;;;;;;;19.58;100.00;99759.25;5024117;28;20015;-73
2023/08/03 10:20:43;;;;;;;;;;;;;;;19.27;100.00;99759.75;5029431;28;20000;-76
2023/08/03 10:23:09;;;;;;;;;;;;;;;19.46;100.00;99766.31;5029284;28;19970;-74
2023/08/03 10:25:53;;;;;;;;;;;;;;;20.06;100.00;99776.53;5006301;28;20458;-75
2023/08/03 10:28:19;;;;;;;;;;;;;;;20.16;100.00;99773.41;5029121;28;19925;-74
2023/08/03 10:31:00;;;;;;;;;;;;;;;19.83;100.00;99772.28;5029668;28;19927;-73
2023/08/03 10:33:45;;;;;;;;;;;;;;;19.75;100.00;99776.00;5028262;28;20191;-72
2023/08/03 10:36:24;;;;;;;;;;;;;;;19.94;100.00;99776.31;5031570;28;19999;-73
2023/08/03 10:38:49;;;;;;;;;;;;;;;20.28;100.00;99785.31;5028212;28;19963;-74
2023/08/03 10:41:21;;;;;;;;;;;;;;;20.63;100.00;99785.09;5029779;28;20686;-73
2023/08/03 10:44:20;;;;;;;;;;;;;;;20.53;100.00;99787.41;5029773;28;20027;-78
2023/08/03 10:46:47;;;;;;;;;;;;;;;20.60;100.00;99803.78;5027521;28;19936;-73
2023/08/03 10:49:27;;;;;;;;;;;;;;;20.41;100.00;99797.28;5031814;28;20543;-75
2023/08/03 10:51:53;;;;;;;;;;;;;;;20.37;100.00;99802.34;5030297;28;19921;-74
2023/08/03 10:54:28;;;;;;;;;;;;;;;20.31;100.00;99795.81;5040863;28;19924;-75
2023/08/03 10:57:04;;;;;;;;;;;;;;;20.42;100.00;99801.69;5031137;28;19947;-75
2023/08/03 10:59:29;;;;;;;;;;;;;;;20.37;100.00;99805.06;5025679;28;20012;-73
2023/08/03 11:01:54;;;;;;;;;;;;;;;20.95;100.00;99811.72;5032529;28;20336;-74
2023/08/03 11:04:23;;;;;;;;;;;;;;;21.29;100.00;99798.81;5027560;28;19932;-74
2023/08/03 11:06:48;;;;;;;;;;;;;;;21.73;100.00;99796.34;5023324;28;19924;-74
2023/08/03 11:09:13;;;;;;;;;;;;;;;21.53;100.00;99800.00;5013192;28;19975;-75
2023/08/03 11:11:40;;;;;;;;;;;;;;;21.78;100.00;99802.00;5027866;28;19991;-77
2023/08/03 11:14:05;;;;;;;;;;;;;;;22.16;100.00;99803.00;5029546;28;19931;-77
2023/08/03 11:16:31;;;;;;;;;;;;;;;22.07;100.00;99813.38;5031908;28;19956;-74
2023/08/03 11:18:56;;;;;;;;;;;;;;;22.43;100.00;99828.28;5014360;28;19959;-75
2023/08/03 11:21:21;;;;;;;;;;;;;;;23.19;100.00;99833.66;5015349;28;19966;-75
2023/08/03 11:23:46;;;;;;;;;;;;;;;23.35;100.00;99837.72;5032025;28;19921;-75
2023/08/03 11:26:12;;;;;;;;;;;;;;;23.73;100.00;99834.94;5027150;28;19968;-72
2023/08/03 11:28:40;;;;;;;;;;;;;;;23.70;100.00;99835.41;5032532;28;19920;-73
2023/08/03 11:31:18;;;;;;;;;;;;;;;23.62;100.00;99833.81;5033422;28;21678;-71
2023/08/03 11:33:50;;;;;;;;;;;;;;;22.91;100.00;99836.88;5029698;28;19925;-73
2023/08/03 11:36:16;;;;;;;;;;;;;;;22.62;100.00;99870.19;5016256;28;19920;-74
2023/08/03 11:38:41;;;;;;;;;;;;;;;21.52;100.00;99898.50;5010938;28;19970;-71
2023/08/03 11:41:06;;;;;;;;;;;;;;;20.30;100.00;99913.25;5026258;28;20237;-73
2023/08/03 11:43:32;;;;;;;;;;;;;;;19.72;100.00;99909.03;5031569;28;19986;-70
2023/08/03 11:45:57;;;;;;;;;;;;;;;19.53;100.00;99925.06;5027992;28;20011;-70
2023/08/03 11:48:24;;;;;;;;;;;;;;;19.07;100.00;99923.72;5028078;28;19921;-71
2023/08/03 11:50:49;;;;;;;;;;;;;;;18.74;100.00;99925.13;5029096;28;20272;-71
2023/08/03 11:53:23;;;;;;;;;;;;;;;18.50;100.00;99934.50;5027820;28;20014;-71
2023/08/03 11:55:48;;;;;;;;;;;;;;;18.10;100.00;99939.50;5031830;28;19931;-73
2023/08/03 11:58:13;;;;;;;;;;;;;;;18.07;100.00;99958.91;5030713;28;19920;-71
2023/08/03 12:00:39;;;;;;;;;;;;;;;18.05;100.00;99967.22;5029920;28;19924;-71
2023/08/03 12:03:04;;;;;;;;;;;;;;;17.96;100.00;99977.31;5028994;28;19921;-71
2023/08/03 12:05:48;;;;;;;;;;;;;;;17.85;100.00;99983.25;5027967;28;20387;-71
2023/08/03 12:08:16;;;;;;;;;;;;;;;17.42;100.00;99988.47;5031516;28;19920;-71
2023/08/03 12:10:54;;;;;;;;;;;;;;;17.34;100.00;100003.81;5028667;28;19920;-73
2023/08/03 12:13:19;;;;;;;;;;;;;;;17.16;100.00;100006.88;5029578;28;19928;-74
2023/08/03 12:15:44;;;;;;;;;;;;;;;17.18;100.00;100010.25;5016887;28;20428;-71
2023/08/03 12:18:09;;;;;;;;;;;;;;;17.22;100.00;100022.38;5028856;28;20344;-72
2023/08/03 12:20:35;;;;;;;;;;;;;;;17.19;100.00;100022.78;5028390;28;20627;-72
2023/08/03 12:23:00;;;;;;;;;;;;;;;17.20;100.00;100029.88;5032884;28;20163;-73
2023/08/03 12:25:25;;;;;;;;;;;;;;;17.22;100.00;100033.22;5026060;28;19970;-75
2023/08/03 12:27:50;;;;;;;;;;;;;;;17.28;100.00;100041.66;5027701;28;20406;-71
2023/08/03 12:30:16;;;;;;;;;;;;;;;17.32;100.00;100049.28;5021508;28;20437;-71